sensor_id;sensor_type;location;lat;lon;timestamp;pressure;altitude;pressure_sealevel;temperature;humidity
63715;BME280;49858;48.956;9.076;2023-04-24T00:00:49;97713.59;;;14.94;100.00
63715;BME280;49858;48.956;9.076;2023-04-24T00:03:17;97703.44;;;14.80;100.00
63715;BME280;49858;48.956;9.076;2023-04-24T00:05:47;97709.63;;;14.95;100.00
63715;BME280;49858;48.956;9.076;2023-04-24T00:08:16;97708.69;;;15.09;100.00
63715;BME280;49858;48.956;9.076;2023-04-24T00:10:44;97700.84;;;15.04;100.00
63715;BME280;49858;48.956;9.076;2023-04-24T00:13:12;97704.31;;;14.67;100.00
63715;BME280;49858;48.956;9.076;2023-04-24T00:15:41;97706.84;;;14.43;100.00
63715;BME280;49858;48.956;9.076;2023-04-24T00:18:09;97696.75;;;13.13;100.00
63715;BME280;49858;48.956;9.076;2023-04-24T00:20:36;97713.69;;;13.26;100.00
63715;BME280;49858;48.956;9.076;2023-04-24T00:23:04;97720.81;;;13.05;100.00
63715;BME280;49858;48.956;9.076;2023-04-24T00:25:32;97723.56;;;13.20;100.00
63715;BME280;49858;48.956;9.076;2023-04-24T00:28:00;97720.81;;;12.98;100.00
63715;BME280;49858;48.956;9.076;2023-04-24T00:30:28;97718.44;;;13.15;100.00
63715;BME280;49858;48.956;9.076;2023-04-24T00:32:58;97707.59;;;13.81;100.00
63715;BME280;49858;48.956;9.076;2023-04-24T00:35:26;97710.38;;;14.54;100.00
63715;BME280;49858;48.956;9.076;2023-04-24T00:37:53;97708.97;;;14.80;100.00
63715;BME280;49858;48.956;9.076;2023-04-24T00:40:22;97712.31;;;14.57;100.00
63715;BME280;49858;48.956;9.076;2023-04-24T00:42:49;97714.16;;;14.12;100.00
63715;BME280;49858;48.956;9.076;2023-04-24T00:45:17;97712.31;;;14.57;100.00
63715;BME280;49858;48.956;9.076;2023-04-24T00:47:48;97705.72;;;14.33;100.00
63715;BME280;49858;48.956;9.076;2023-04-24T00:50:17;97705.53;;;14.03;100.00
63715;BME280;49858;48.956;9.076;2023-04-24T00:52:45;97698.19;;;14.41;100.00
63715;BME280;49858;48.956;9.076;2023-04-24T00:55:13;97704.91;;;14.40;100.00
63715;BME280;49858;48.956;9.076;2023-04-24T00:57:42;97699.56;;;14.67;100.00
63715;BME280;49858;48.956;9.076;2023-04-24T01:00:12;97698.47;;;13.91;100.00
63715;BME280;49858;48.956;9.076;2023-04-24T01:02:42;97675.81;;;13.37;100.00
63715;BME280;49858;48.956;9.076;2023-04-24T01:05:13;97685.38;;;14.02;100.00
63715;BME280;49858;48.956;9.076;2023-04-24T01:07:45;97683.34;;;14.10;100.00
63715;BME280;49858;48.956;9.076;2023-04-24T01:10:15;97682.38;;;13.68;100.00
63715;BME280;49858;48.956;9.076;2023-04-24T01:12:44;97683.59;;;13.64;100.00
63715;BME280;49858;48.956;9.076;2023-04-24T01:15:12;97674.69;;;14.04;100.00
63715;BME280;49858;48.956;9.076;2023-04-24T01:17:41;97675.56;;;13.94;100.00
63715;BME280;49858;48.956;9.076;2023-04-24T01:20:09;97675.69;;;13.62;100.00
63715;BME280;49858;48.956;9.076;2023-04-24T01:22:39;97665.84;;;13.65;100.00
63715;BME280;49858;48.956;9.076;2023-04-24T01:25:08;97668.66;;;13.47;100.00
63715;BME280;49858;48.956;9.076;2023-04-24T01:27:36;97662.78;;;13.41;100.00
63715;BME280;49858;48.956;9.076;2023-04-24T01:30:05;97655.19;;;13.60;100.00
63715;BME280;49858;48.956;9.076;2023-04-24T01:32:34;97667.06;;;13.49;100.00
63715;BME280;49858;48.956;9.076;2023-04-24T01:35:02;97661.53;;;13.53;100.00
63715;BME280;49858;48.956;9.076;2023-04-24T01:37:30;97668.34;;;13.13;100.00
63715;BME280;49858;48.956;9.076;2023-04-24T01:40:00;97670.66;;;13.36;100.00
63715;BME280;49858;48.956;9.076;2023-04-24T01:42:29;97667.94;;;13.25;100.00
63715;BME280;49858;48.956;9.076;2023-04-24T01:44:57;97664.69;;;13.51;100.00
63715;BME280;49858;48.956;9.076;2023-04-24T01:47:25;97661.94;;;13.51;100.00
63715;BME280;49858;48.956;9.076;2023-04-24T01:49:53;97654.91;;;13.25;100.00
63715;BME280;49858;48.956;9.076;2023-04-24T01:52:23;97664.38;;;13.21;100.00
63715;BME280;49858;48.956;9.076;2023-04-24T01:55:00;97660.84;;;13.10;100.00
63715;BME280;49858;48.956;9.076;2023-04-24T01:57:28;97660.13;;;12.59;100.00
63715;BME280;49858;48.956;9.076;2023-04-24T01:59:57;97665.66;;;12.31;100.00
63715;BME280;49858;48.956;9.076;2023-04-24T02:02:25;97661.72;;;12.42;100.00
63715;BME280;49858;48.956;9.076;2023-04-24T02:04:56;97667.25;;;12.28;100.00
63715;BME280;49858;48.956;9.076;2023-04-24T02:07:24;97657.78;;;12.58;100.00
63715;BME280;49858;48.956;9.076;2023-04-24T02:09:52;97661.72;;;12.35;100.00
63715;BME280;49858;48.956;9.076;2023-04-24T02:12:23;97657.34;;;12.84;100.00
63715;BME280;49858;48.956;9.076;2023-04-24T02:14:51;97659.34;;;12.62;100.00
63715;BME280;49858;48.956;9.076;2023-04-24T02:17:18;97657.28;;;13.27;100.00
63715;BME280;49858;48.956;9.076;2023-04-24T02:19:46;97663.28;;;12.65;100.00
63715;BME280;49858;48.956;9.076;2023-04-24T02:22:15;97668.81;;;12.68;100.00
63715;BME280;49858;48.956;9.076;2023-04-24T02:24:43;97674.31;;;12.72;100.00
63715;BME280;49858;48.956;9.076;2023-04-24T02:27:14;97680.19;;;12.17;100.00
63715;BME280;49858;48.956;9.076;2023-04-24T02:29:43;97674.28;;;12.93;100.00
63715;BME280;49858;48.956;9.076;2023-04-24T02:32:11;97671.97;;;12.85;100.00
63715;BME280;49858;48.956;9.076;2023-04-24T02:34:42;97678.22;;;12.17;100.00
63715;BME280;49858;48.956;9.076;2023-04-24T02:37:11;97678.28;;;12.57;100.00
63715;BME280;49858;48.956;9.076;2023-04-24T02:39:42;97672.34;;;12.76;100.00
63715;BME280;49858;48.956;9.076;2023-04-24T02:42:10;97675.09;;;12.79;100.00
63715;BME280;49858;48.956;9.076;2023-04-24T02:44:37;97677.88;;;12.54;100.00
63715;BME280;49858;48.956;9.076;2023-04-24T02:47:09;97673.53;;;12.39;100.00
63715;BME280;49858;48.956;9.076;2023-04-24T02:49:37;97651.44;;;12.82;100.00
63715;BME280;49858;48.956;9.076;2023-04-24T02:52:04;97657.72;;;13.00;100.00
63715;BME280;49858;48.956;9.076;2023-04-24T02:54:32;97682.97;;;12.20;100.00
63715;BME280;49858;48.956;9.076;2023-04-24T02:57:00;97679.03;;;12.14;100.00
63715;BME280;49858;48.956;9.076;2023-04-24T02:59:29;97674.25;;;12.04;100.00
63715;BME280;49858;48.956;9.076;2023-04-24T03:01:56;97675.88;;;12.12;100.00
63715;BME280;49858;48.956;9.076;2023-04-24T03:04:26;97675.47;;;12.21;100.00
63715;BME280;49858;48.956;9.076;2023-04-24T03:06:54;97660.13;;;12.20;100.00
63715;BME280;49858;48.956;9.076;2023-04-24T03:09:22;97659.34;;;12.19;100.00
63715;BME280;49858;48.956;9.076;2023-04-24T03:11:50;97666.03;;;12.15;100.00
63715;BME280;49858;48.956;9.076;2023-04-24T03:14:19;97666.34;;;11.85;100.00
63715;BME280;49858;48.956;9.076;2023-04-24T03:16:52;97673.44;;;11.82;100.00
63715;BME280;49858;48.956;9.076;2023-04-24T03:19:20;97665.63;;;12.09;100.00
63715;BME280;49858;48.956;9.076;2023-04-24T03:22:01;97658.94;;;12.32;100.00
63715;BME280;49858;48.956;9.076;2023-04-24T03:24:30;97672.69;;;11.99;100.00
63715;BME280;49858;48.956;9.076;2023-04-24T03:26:58;97655.00;;;12.50;100.00
63715;BME280;49858;48.956;9.076;2023-04-24T03:29:45;97655.78;;;12.79;100.00
63715;BME280;49858;48.956;9.076;2023-04-24T03:32:14;97654.59;;;12.77;100.00
63715;BME280;49858;48.956;9.076;2023-04-24T03:34:42;97664.03;;;12.97;100.00
63715;BME280;49858;48.956;9.076;2023-04-24T03:37:14;97651.00;;;13.01;100.00
63715;BME280;49858;48.956;9.076;2023-04-24T03:39:48;97670.38;;;12.59;100.00
63715;BME280;49858;48.956;9.076;2023-04-24T03:42:20;97664.88;;;12.34;100.00
63715;BME280;49858;48.956;9.076;2023-04-24T03:44:51;97669.53;;;11.87;100.00
63715;BME280;49858;48.956;9.076;2023-04-24T03:47:22;97666.41;;;12.92;100.00
63715;BME280;49858;48.956;9.076;2023-04-24T03:49:52;97675.13;;;12.33;100.00
63715;BME280;49858;48.956;9.076;2023-04-24T03:52:22;97677.47;;;12.24;100.00
63715;BME280;49858;48.956;9.076;2023-04-24T03:54:50;97695.34;;;11.50;100.00
63715;BME280;49858;48.956;9.076;2023-04-24T03:57:18;97716.91;;;11.41;100.00
63715;BME280;49858;48.956;9.076;2023-04-24T03:59:59;97726.66;;;11.20;100.00
63715;BME280;49858;48.956;9.076;2023-04-24T04:02:27;97747.38;;;11.04;100.00
63715;BME280;49858;48.956;9.076;2023-04-24T04:04:55;97773.56;;;10.83;100.00
63715;BME280;49858;48.956;9.076;2023-04-24T04:07:25;97777.94;;;10.47;100.00
63715;BME280;49858;48.956;9.076;2023-04-24T04:09:53;97893.66;;;11.06;100.00
63715;BME280;49858;48.956;9.076;2023-04-24T04:12:22;97852.56;;;10.86;100.00
63715;BME280;49858;48.956;9.076;2023-04-24T04:14:50;97829.22;;;10.69;100.00
63715;BME280;49858;48.956;9.076;2023-04-24T04:17:18;97812.63;;;10.59;100.00
63715;BME280;49858;48.956;9.076;2023-04-24T04:19:46;97844.31;;;10.45;100.00
63715;BME280;49858;48.956;9.076;2023-04-24T04:22:14;97837.88;;;10.34;100.00
63715;BME280;49858;48.956;9.076;2023-04-24T04:24:47;97808.22;;;10.51;100.00
63715;BME280;49858;48.956;9.076;2023-04-24T04:27:15;97823.94;;;10.20;100.00
63715;BME280;49858;48.956;9.076;2023-04-24T04:29:49;97824.06;;;10.27;100.00
63715;BME280;49858;48.956;9.076;2023-04-24T04:32:18;97819.25;;;10.54;100.00
63715;BME280;49858;48.956;9.076;2023-04-24T04:34:46;97815.09;;;10.34;100.00
63715;BME280;49858;48.956;9.076;2023-04-24T04:37:15;97824.72;;;10.17;100.00
63715;BME280;49858;48.956;9.076;2023-04-24T04:39:43;97832.63;;;10.22;100.00
63715;BME280;49858;48.956;9.076;2023-04-24T04:42:18;97821.72;;;10.29;100.00
63715;BME280;49858;48.956;9.076;2023-04-24T04:44:46;97838.78;;;10.12;100.00
63715;BME280;49858;48.956;9.076;2023-04-24T04:47:20;97819.56;;;10.49;100.00
63715;BME280;49858;48.956;9.076;2023-04-24T04:49:50;97817.56;;;10.42;100.00
63715;BME280;49858;48.956;9.076;2023-04-24T04:52:22;97810.53;;;10.48;100.00
63715;BME280;49858;48.956;9.076;2023-04-24T04:54:58;97834.38;;;10.37;100.00
63715;BME280;49858;48.956;9.076;2023-04-24T04:57:40;97828.06;;;10.33;100.00
63715;BME280;49858;48.956;9.076;2023-04-24T05:00:09;97837.88;;;10.31;100.00
63715;BME280;49858;48.956;9.076;2023-04-24T05:02:45;97831.25;;;10.39;100.00
63715;BME280;49858;48.956;9.076;2023-04-24T05:05:13;97839.63;;;10.49;100.00
63715;BME280;49858;48.956;9.076;2023-04-24T05:07:44;97848.53;;;10.39;100.00
63715;BME280;49858;48.956;9.076;2023-04-24T05:10:11;97855.78;;;10.21;100.00
63715;BME280;49858;48.956;9.076;2023-04-24T05:12:41;97866.66;;;10.14;100.00
63715;BME280;49858;48.956;9.076;2023-04-24T05:15:12;97874.44;;;10.38;100.00
63715;BME280;49858;48.956;9.076;2023-04-24T05:17:39;97876.25;;;10.57;100.00
63715;BME280;49858;48.956;9.076;2023-04-24T05:20:08;97868.94;;;10.38;100.00
63715;BME280;49858;48.956;9.076;2023-04-24T05:22:37;97880.06;;;10.45;100.00
63715;BME280;49858;48.956;9.076;2023-04-24T05:25:06;97881.03;;;10.64;100.00
63715;BME280;49858;48.956;9.076;2023-04-24T05:27:51;97891.44;;;10.47;100.00
63715;BME280;49858;48.956;9.076;2023-04-24T05:30:22;97889.38;;;10.37;100.00
63715;BME280;49858;48.956;9.076;2023-04-24T05:32:50;97898.03;;;10.09;100.00
63715;BME280;49858;48.956;9.076;2023-04-24T05:35:17;97903.00;;;10.27;100.00
63715;BME280;49858;48.956;9.076;2023-04-24T05:37:46;97899.34;;;9.92;100.00
63715;BME280;49858;48.956;9.076;2023-04-24T05:40:15;97901.22;;;9.85;100.00
63715;BME280;49858;48.956;9.076;2023-04-24T05:42:43;97902.00;;;9.85;100.00
63715;BME280;49858;48.956;9.076;2023-04-24T05:45:14;97911.56;;;9.95;100.00
63715;BME280;49858;48.956;9.076;2023-04-24T05:47:43;97897.63;;;10.07;100.00
63715;BME280;49858;48.956;9.076;2023-04-24T05:50:12;97911.59;;;10.25;100.00
63715;BME280;49858;48.956;9.076;2023-04-24T05:52:40;97915.75;;;10.15;100.00
63715;BME280;49858;48.956;9.076;2023-04-24T05:55:21;97908.56;;;10.34;100.00
63715;BME280;49858;48.956;9.076;2023-04-24T05:57:48;97918.78;;;10.67;100.00
63715;BME280;49858;48.956;9.076;2023-04-24T06:00:18;97918.56;;;10.49;100.00
63715;BME280;49858;48.956;9.076;2023-04-24T06:02:56;97925.00;;;10.30;100.00
63715;BME280;49858;48.956;9.076;2023-04-24T06:05:24;97912.78;;;10.58;100.00
63715;BME280;49858;48.956;9.076;2023-04-24T06:07:52;97918.03;;;10.36;100.00
63715;BME280;49858;48.956;9.076;2023-04-24T06:10:23;97916.13;;;10.74;100.00
63715;BME280;49858;48.956;9.076;2023-04-24T06:12:51;97915.84;;;10.86;100.00
63715;BME280;49858;48.956;9.076;2023-04-24T06:15:20;97910.09;;;10.98;100.00
63715;BME280;49858;48.956;9.076;2023-04-24T06:18:08;97916.47;;;11.10;100.00
63715;BME280;49858;48.956;9.076;2023-04-24T06:20:38;97909.72;;;11.04;100.00
63715;BME280;49858;48.956;9.076;2023-04-24T06:23:08;97908.06;;;10.95;100.00
63715;BME280;49858;48.956;9.076;2023-04-24T06:25:36;97913.25;;;11.45;100.00
63715;BME280;49858;48.956;9.076;2023-04-24T06:28:04;97913.31;;;11.08;100.00
63715;BME280;49858;48.956;9.076;2023-04-24T06:30:33;97912.84;;;10.98;100.00
63715;BME280;49858;48.956;9.076;2023-04-24T06:33:01;97907.19;;;10.84;100.00
63715;BME280;49858;48.956;9.076;2023-04-24T06:35:46;97918.75;;;11.00;100.00
63715;BME280;49858;48.956;9.076;2023-04-24T06:38:14;97918.03;;;11.07;100.00
63715;BME280;49858;48.956;9.076;2023-04-24T06:40:42;97913.75;;;11.13;100.00
63715;BME280;49858;48.956;9.076;2023-04-24T06:43:10;97908.38;;;11.27;100.00
63715;BME280;49858;48.956;9.076;2023-04-24T06:45:39;97904.44;;;11.25;100.00
63715;BME280;49858;48.956;9.076;2023-04-24T06:48:07;97903.13;;;11.60;100.00
63715;BME280;49858;48.956;9.076;2023-04-24T06:50:35;97894.56;;;11.72;100.00
63715;BME280;49858;48.956;9.076;2023-04-24T06:53:03;97900.13;;;11.79;100.00
63715;BME280;49858;48.956;9.076;2023-04-24T06:55:35;97904.38;;;12.32;100.00
63715;BME280;49858;48.956;9.076;2023-04-24T06:58:03;97902.63;;;11.98;100.00
63715;BME280;49858;48.956;9.076;2023-04-24T07:00:32;97908.00;;;11.81;100.00
63715;BME280;49858;48.956;9.076;2023-04-24T07:03:01;97890.72;;;11.84;100.00
63715;BME280;49858;48.956;9.076;2023-04-24T07:05:29;97891.44;;;12.50;100.00
63715;BME280;49858;48.956;9.076;2023-04-24T07:07:57;97895.44;;;11.83;100.00
63715;BME280;49858;48.956;9.076;2023-04-24T07:10:25;97889.09;;;11.79;100.00
63715;BME280;49858;48.956;9.076;2023-04-24T07:12:55;97885.16;;;11.80;100.00
63715;BME280;49858;48.956;9.076;2023-04-24T07:15:23;97883.56;;;11.75;100.00
63715;BME280;49858;48.956;9.076;2023-04-24T07:17:51;97888.47;;;12.03;100.00
63715;BME280;49858;48.956;9.076;2023-04-24T07:20:20;97896.28;;;11.94;100.00
63715;BME280;49858;48.956;9.076;2023-04-24T07:22:50;97892.53;;;12.24;100.00
63715;BME280;49858;48.956;9.076;2023-04-24T07:25:18;97893.59;;;11.46;100.00
63715;BME280;49858;48.956;9.076;2023-04-24T07:27:46;97893.03;;;11.78;100.00
63715;BME280;49858;48.956;9.076;2023-04-24T07:30:15;97897.28;;;11.68;100.00
63715;BME280;49858;48.956;9.076;2023-04-24T07:32:43;97911.78;;;11.62;100.00
63715;BME280;49858;48.956;9.076;2023-04-24T07:35:11;97913.81;;;11.68;100.00
63715;BME280;49858;48.956;9.076;2023-04-24T07:37:40;97901.03;;;11.90;100.00
63715;BME280;49858;48.956;9.076;2023-04-24T07:40:12;97916.88;;;11.56;100.00
63715;BME280;49858;48.956;9.076;2023-04-24T07:42:40;97915.88;;;11.78;100.00
63715;BME280;49858;48.956;9.076;2023-04-24T07:45:08;97928.63;;;11.49;100.00
63715;BME280;49858;48.956;9.076;2023-04-24T07:47:36;97927.78;;;11.42;100.00
63715;BME280;49858;48.956;9.076;2023-04-24T07:50:06;97937.41;;;11.62;100.00
63715;BME280;49858;48.956;9.076;2023-04-24T07:52:34;97953.66;;;11.30;100.00
63715;BME280;49858;48.956;9.076;2023-04-24T07:55:04;97947.84;;;11.42;100.00
63715;BME280;49858;48.956;9.076;2023-04-24T07:57:32;97905.97;;;11.67;100.00
63715;BME280;49858;48.956;9.076;2023-04-24T08:00:00;97946.34;;;11.48;100.00
63715;BME280;49858;48.956;9.076;2023-04-24T08:02:36;97970.78;;;11.13;100.00
63715;BME280;49858;48.956;9.076;2023-04-24T08:05:05;97967.34;;;11.23;100.00
63715;BME280;49858;48.956;9.076;2023-04-24T08:07:34;97942.38;;;11.05;100.00
63715;BME280;49858;48.956;9.076;2023-04-24T08:10:04;97961.41;;;11.65;100.00
63715;BME280;49858;48.956;9.076;2023-04-24T08:12:33;97963.88;;;11.30;100.00
63715;BME280;49858;48.956;9.076;2023-04-24T08:15:01;97969.38;;;11.33;100.00
63715;BME280;49858;48.956;9.076;2023-04-24T08:17:28;97970.91;;;11.27;100.00
63715;BME280;49858;48.956;9.076;2023-04-24T08:19:59;97979.16;;;11.27;100.00
63715;BME280;49858;48.956;9.076;2023-04-24T08:22:28;97968.28;;;11.82;100.00
63715;BME280;49858;48.956;9.076;2023-04-24T08:24:56;97976.53;;;11.82;100.00
63715;BME280;49858;48.956;9.076;2023-04-24T08:27:26;97987.44;;;11.68;100.00
63715;BME280;49858;48.956;9.076;2023-04-24T08:29:54;97970.44;;;12.10;100.00
63715;BME280;49858;48.956;9.076;2023-04-24T08:32:22;97976.41;;;12.23;100.00
63715;BME280;49858;48.956;9.076;2023-04-24T08:34:50;97998.84;;;11.70;100.00
63715;BME280;49858;48.956;9.076;2023-04-24T08:37:19;97980.00;;;11.75;100.00
63715;BME280;49858;48.956;9.076;2023-04-24T08:39:47;97986.19;;;12.10;100.00
63715;BME280;49858;48.956;9.076;2023-04-24T08:42:17;97977.84;;;12.68;100.00
63715;BME280;49858;48.956;9.076;2023-04-24T08:44:47;97995.72;;;12.23;100.00
63715;BME280;49858;48.956;9.076;2023-04-24T08:47:20;97987.03;;;12.21;100.00
63715;BME280;49858;48.956;9.076;2023-04-24T08:49:51;97978.66;;;12.79;100.00
63715;BME280;49858;48.956;9.076;2023-04-24T08:52:20;97985.22;;;11.84;100.00
63715;BME280;49858;48.956;9.076;2023-04-24T08:54:48;97982.19;;;12.03;100.00
63715;BME280;49858;48.956;9.076;2023-04-24T08:57:17;98003.66;;;11.80;100.00
63715;BME280;49858;48.956;9.076;2023-04-24T08:59:47;97981.78;;;11.98;100.00
63715;BME280;49858;48.956;9.076;2023-04-24T09:02:15;97986.91;;;12.03;100.00
63715;BME280;49858;48.956;9.076;2023-04-24T09:04:45;97989.72;;;12.76;100.00
63715;BME280;49858;48.956;9.076;2023-04-24T09:07:16;97990.78;;;12.53;100.00
63715;BME280;49858;48.956;9.076;2023-04-24T09:09:44;97996.66;;;12.48;100.00
63715;BME280;49858;48.956;9.076;2023-04-24T09:12:12;98013.47;;;12.25;100.00
63715;BME280;49858;48.956;9.076;2023-04-24T09:14:40;98009.44;;;11.64;100.00
63715;BME280;49858;48.956;9.076;2023-04-24T09:17:13;98020.88;;;12.18;100.00
63715;BME280;49858;48.956;9.076;2023-04-24T09:19:41;98013.94;;;12.42;100.00
63715;BME280;49858;48.956;9.076;2023-04-24T09:22:10;98006.19;;;12.58;100.00
63715;BME280;49858;48.956;9.076;2023-04-24T09:24:39;98012.94;;;12.75;100.00
63715;BME280;49858;48.956;9.076;2023-04-24T09:27:07;98021.50;;;12.48;100.00
63715;BME280;49858;48.956;9.076;2023-04-24T09:29:36;98015.38;;;12.87;100.00
63715;BME280;49858;48.956;9.076;2023-04-24T09:32:19;98013.03;;;12.20;100.00
63715;BME280;49858;48.956;9.076;2023-04-24T09:34:48;98028.56;;;12.42;100.00
63715;BME280;49858;48.956;9.076;2023-04-24T09:37:27;98024.25;;;12.48;100.00
63715;BME280;49858;48.956;9.076;2023-04-24T09:40:08;98047.00;;;11.83;100.00
63715;BME280;49858;48.956;9.076;2023-04-24T09:42:37;98028.94;;;12.44;100.00
63715;BME280;49858;48.956;9.076;2023-04-24T09:45:08;98051.31;;;12.32;100.00
63715;BME280;49858;48.956;9.076;2023-04-24T09:47:44;98052.00;;;12.15;100.00
63715;BME280;49858;48.956;9.076;2023-04-24T09:50:14;98053.78;;;11.93;100.00
63715;BME280;49858;48.956;9.076;2023-04-24T09:52:46;98053.50;;;12.09;100.00
63715;BME280;49858;48.956;9.076;2023-04-24T09:55:18;98061.31;;;12.54;100.00
63715;BME280;49858;48.956;9.076;2023-04-24T09:57:50;98060.84;;;12.42;100.00
63715;BME280;49858;48.956;9.076;2023-04-24T10:00:22;98037.13;;;12.99;100.00
63715;BME280;49858;48.956;9.076;2023-04-24T10:02:59;98048.09;;;12.85;100.00
63715;BME280;49858;48.956;9.076;2023-04-24T10:05:29;98054.91;;;12.36;100.00
63715;BME280;49858;48.956;9.076;2023-04-24T10:08:01;98041.03;;;12.98;100.00
63715;BME280;49858;48.956;9.076;2023-04-24T10:10:30;98066.09;;;12.58;100.00
63715;BME280;49858;48.956;9.076;2023-04-24T10:12:59;98063.38;;;12.10;100.00
63715;BME280;49858;48.956;9.076;2023-04-24T10:15:27;98069.66;;;12.07;100.00
63715;BME280;49858;48.956;9.076;2023-04-24T10:17:58;98090.66;;;11.81;100.00
63715;BME280;49858;48.956;9.076;2023-04-24T10:20:28;98074.41;;;12.13;100.00
63715;BME280;49858;48.956;9.076;2023-04-24T10:22:57;98083.75;;;12.49;100.00
63715;BME280;49858;48.956;9.076;2023-04-24T10:25:28;98085.03;;;11.70;100.00
63715;BME280;49858;48.956;9.076;2023-04-24T10:28:00;98091.53;;;11.51;100.00
63715;BME280;49858;48.956;9.076;2023-04-24T10:30:30;98093.03;;;11.45;100.00
63715;BME280;49858;48.956;9.076;2023-04-24T10:33:03;98100.53;;;11.11;100.00
63715;BME280;49858;48.956;9.076;2023-04-24T10:35:32;98093.28;;;10.99;100.00
63715;BME280;49858;48.956;9.076;2023-04-24T10:38:05;98103.53;;;11.33;100.00
63715;BME280;49858;48.956;9.076;2023-04-24T10:40:34;98103.84;;;11.27;100.00
63715;BME280;49858;48.956;9.076;2023-04-24T10:43:06;98091.91;;;11.50;100.00
63715;BME280;49858;48.956;9.076;2023-04-24T10:45:34;98097.78;;;11.82;100.00
63715;BME280;49858;48.956;9.076;2023-04-24T10:48:05;98087.09;;;11.40;100.00
63715;BME280;49858;48.956;9.076;2023-04-24T10:50:45;98087.06;;;12.18;100.00
63715;BME280;49858;48.956;9.076;2023-04-24T10:53:15;98086.25;;;12.14;100.00
63715;BME280;49858;48.956;9.076;2023-04-24T10:55:45;98099.75;;;12.26;100.00
63715;BME280;49858;48.956;9.076;2023-04-24T10:58:13;98096.13;;;12.15;100.00
63715;BME280;49858;48.956;9.076;2023-04-24T11:00:43;98093.34;;;12.15;100.00
63715;BME280;49858;48.956;9.076;2023-04-24T11:03:25;98101.31;;;12.27;100.00
63715;BME280;49858;48.956;9.076;2023-04-24T11:05:57;98109.19;;;12.25;100.00
63715;BME280;49858;48.956;9.076;2023-04-24T11:08:30;98116.28;;;12.26;100.00
63715;BME280;49858;48.956;9.076;2023-04-24T11:11:03;98104.84;;;12.83;100.00
63715;BME280;49858;48.956;9.076;2023-04-24T11:14:05;98107.44;;;12.54;100.00
63715;BME280;49858;48.956;9.076;2023-04-24T11:16:40;98104.44;;;12.22;100.00
63715;BME280;49858;48.956;9.076;2023-04-24T11:19:18;98095.84;;;12.89;100.00
63715;BME280;49858;48.956;9.076;2023-04-24T11:21:48;98116.22;;;12.15;100.00
63715;BME280;49858;48.956;9.076;2023-04-24T11:24:23;98108.88;;;12.34;100.00
63715;BME280;49858;48.956;9.076;2023-04-24T11:26:51;98102.06;;;12.20;100.00
63715;BME280;49858;48.956;9.076;2023-04-24T11:29:20;98090.97;;;12.68;100.00
63715;BME280;49858;48.956;9.076;2023-04-24T11:31:50;98109.78;;;13.18;100.00
63715;BME280;49858;48.956;9.076;2023-04-24T11:34:20;98094.22;;;13.79;100.00
63715;BME280;49858;48.956;9.076;2023-04-24T11:36:48;98107.84;;;12.56;100.00
63715;BME280;49858;48.956;9.076;2023-04-24T11:39:16;98118.91;;;13.29;100.00
63715;BME280;49858;48.956;9.076;2023-04-24T11:41:46;98122.66;;;14.01;97.83
63715;BME280;49858;48.956;9.076;2023-04-24T11:44:14;98110.25;;;13.34;98.22
63715;BME280;49858;48.956;9.076;2023-04-24T11:46:45;98123.69;;;13.39;99.57
63715;BME280;49858;48.956;9.076;2023-04-24T11:49:13;98114.13;;;12.53;100.00
63715;BME280;49858;48.956;9.076;2023-04-24T11:51:42;98132.72;;;12.12;100.00
63715;BME280;49858;48.956;9.076;2023-04-24T11:54:19;98128.19;;;12.37;100.00
63715;BME280;49858;48.956;9.076;2023-04-24T11:56:47;98136.81;;;12.32;100.00
63715;BME280;49858;48.956;9.076;2023-04-24T11:59:15;98141.72;;;12.53;100.00
63715;BME280;49858;48.956;9.076;2023-04-24T12:01:43;98140.13;;;12.48;100.00
63715;BME280;49858;48.956;9.076;2023-04-24T12:04:16;98142.25;;;12.73;100.00
63715;BME280;49858;48.956;9.076;2023-04-24T12:07:01;98147.97;;;12.46;100.00
63715;BME280;49858;48.956;9.076;2023-04-24T12:09:40;98183.25;;;12.26;100.00
63715;BME280;49858;48.956;9.076;2023-04-24T12:12:09;98143.56;;;12.90;100.00
63715;BME280;49858;48.956;9.076;2023-04-24T12:14:43;98138.78;;;12.87;100.00
63715;BME280;49858;48.956;9.076;2023-04-24T12:17:11;98153.44;;;11.98;100.00
63715;BME280;49858;48.956;9.076;2023-04-24T12:19:45;98160.13;;;11.97;100.00
63715;BME280;49858;48.956;9.076;2023-04-24T12:22:14;98182.53;;;11.59;100.00
63715;BME280;49858;48.956;9.076;2023-04-24T12:24:59;98174.72;;;11.64;100.00
63715;BME280;49858;48.956;9.076;2023-04-24T12:27:30;98200.16;;;11.24;100.00
63715;BME280;49858;48.956;9.076;2023-04-24T12:30:01;98191.50;;;11.22;100.00
63715;BME280;49858;48.956;9.076;2023-04-24T12:32:29;98202.31;;;11.08;100.00
63715;BME280;49858;48.956;9.076;2023-04-24T12:34:57;98189.19;;;10.97;100.00
63715;BME280;49858;48.956;9.076;2023-04-24T12:37:32;98195.03;;;10.92;100.00
63715;BME280;49858;48.956;9.076;2023-04-24T12:40:02;98170.03;;;12.46;100.00
63715;BME280;49858;48.956;9.076;2023-04-24T12:42:30;98171.81;;;13.35;100.00
63715;BME280;49858;48.956;9.076;2023-04-24T12:44:59;98175.25;;;13.14;100.00
63715;BME280;49858;48.956;9.076;2023-04-24T12:47:27;98173.97;;;12.01;100.00
63715;BME280;49858;48.956;9.076;2023-04-24T12:49:56;98175.44;;;11.91;100.00
63715;BME280;49858;48.956;9.076;2023-04-24T12:52:24;98169.13;;;12.32;100.00
63715;BME280;49858;48.956;9.076;2023-04-24T12:54:55;98171.13;;;11.60;100.00
63715;BME280;49858;48.956;9.076;2023-04-24T12:57:24;98172.22;;;12.26;100.00
63715;BME280;49858;48.956;9.076;2023-04-24T12:59:53;98177.44;;;12.35;100.00
63715;BME280;49858;48.956;9.076;2023-04-24T13:02:21;98177.97;;;11.40;100.00
63715;BME280;49858;48.956;9.076;2023-04-24T13:04:50;98183.25;;;11.56;100.00